sensor_id;sensor_type;location;lat;lon;timestamp;P1;durP1;ratioP1;P2;durP2;ratioP2
16916;SDS011;8575;52.418;13.492;2023-01-01T00:01:55;178.53;;;45.27;;
16916;SDS011;8575;52.418;13.492;2023-01-01T00:03:58;178.53;;;45.83;;
16916;SDS011;8575;52.418;13.492;2023-01-01T00:06:03;175.83;;;45.03;;
16916;SDS011;8575;52.418;13.492;2023-01-01T00:08:06;175.20;;;45.37;;
16916;SDS011;8575;52.418;13.492;2023-01-01T00:10:08;172.00;;;44.80;;
16916;SDS011;8575;52.418;13.492;2023-01-01T00:12:29;172.73;;;44.63;;
16916;SDS011;8575;52.418;13.492;2023-01-01T00:14:32;169.20;;;44.00;;
16916;SDS011;8575;52.418;13.492;2023-01-01T00:16:34;168.30;;;43.50;;
16916;SDS011;8575;52.418;13.492;2023-01-01T00:18:39;169.77;;;44.77;;
16916;SDS011;8575;52.418;13.492;2023-01-01T00:20:41;169.33;;;44.33;;
16916;SDS011;8575;52.418;13.492;2023-01-01T00:22:45;170.27;;;44.47;;
16916;SDS011;8575;52.418;13.492;2023-01-01T00:24:49;168.57;;;44.90;;
16916;SDS011;8575;52.418;13.492;2023-01-01T00:26:51;169.13;;;43.77;;
16916;SDS011;8575;52.418;13.492;2023-01-01T00:28:53;168.63;;;43.70;;
16916;SDS011;8575;52.418;13.492;2023-01-01T00:30:55;160.87;;;42.57;;
16916;SDS011;8575;52.418;13.492;2023-01-01T00:32:57;161.03;;;42.87;;
16916;SDS011;8575;52.418;13.492;2023-01-01T00:35:01;160.93;;;43.70;;
16916;SDS011;8575;52.418;13.492;2023-01-01T00:37:04;160.23;;;43.40;;
16916;SDS011;8575;52.418;13.492;2023-01-01T00:39:07;161.00;;;42.67;;
16916;SDS011;8575;52.418;13.492;2023-01-01T00:41:09;153.83;;;40.10;;
16916;SDS011;8575;52.418;13.492;2023-01-01T00:43:15;161.23;;;43.50;;
16916;SDS011;8575;52.418;13.492;2023-01-01T00:45:17;161.27;;;44.27;;
16916;SDS011;8575;52.418;13.492;2023-01-01T00:47:20;158.37;;;43.07;;
16916;SDS011;8575;52.418;13.492;2023-01-01T00:49:23;160.13;;;43.07;;
16916;SDS011;8575;52.418;13.492;2023-01-01T00:51:26;161.83;;;42.80;;
16916;SDS011;8575;52.418;13.492;2023-01-01T00:53:29;159.33;;;42.63;;
16916;SDS011;8575;52.418;13.492;2023-01-01T00:55:32;151.77;;;40.97;;
16916;SDS011;8575;52.418;13.492;2023-01-01T00:57:34;148.13;;;40.03;;
16916;SDS011;8575;52.418;13.492;2023-01-01T00:59:37;150.77;;;42.17;;
16916;SDS011;8575;52.418;13.492;2023-01-01T01:01:39;148.30;;;41.97;;
16916;SDS011;8575;52.418;13.492;2023-01-01T01:03:41;150.37;;;41.20;;
16916;SDS011;8575;52.418;13.492;2023-01-01T01:05:44;151.87;;;41.23;;
16916;SDS011;8575;52.418;13.492;2023-01-01T01:07:47;161.10;;;42.97;;
16916;SDS011;8575;52.418;13.492;2023-01-01T01:09:50;159.03;;;42.90;;
16916;SDS011;8575;52.418;13.492;2023-01-01T01:11:52;158.90;;;43.33;;
16916;SDS011;8575;52.418;13.492;2023-01-01T01:13:55;162.00;;;43.73;;
16916;SDS011;8575;52.418;13.492;2023-01-01T01:15:57;160.77;;;43.20;;
16916;SDS011;8575;52.418;13.492;2023-01-01T01:18:00;160.03;;;43.00;;
16916;SDS011;8575;52.418;13.492;2023-01-01T01:20:03;156.97;;;41.40;;
16916;SDS011;8575;52.418;13.492;2023-01-01T01:22:06;157.10;;;42.07;;
16916;SDS011;8575;52.418;13.492;2023-01-01T01:24:09;159.27;;;42.40;;
16916;SDS011;8575;52.418;13.492;2023-01-01T01:26:12;156.43;;;41.90;;
16916;SDS011;8575;52.418;13.492;2023-01-01T01:28:16;159.43;;;42.70;;
16916;SDS011;8575;52.418;13.492;2023-01-01T01:30:18;159.47;;;42.30;;
16916;SDS011;8575;52.418;13.492;2023-01-01T01:32:21;157.97;;;42.07;;
16916;SDS011;8575;52.418;13.492;2023-01-01T01:34:23;159.23;;;42.43;;
16916;SDS011;8575;52.418;13.492;2023-01-01T01:36:26;156.90;;;41.90;;
16916;SDS011;8575;52.418;13.492;2023-01-01T01:38:29;160.20;;;42.33;;
16916;SDS011;8575;52.418;13.492;2023-01-01T01:40:33;159.47;;;42.23;;
16916;SDS011;8575;52.418;13.492;2023-01-01T01:42:35;159.70;;;42.33;;
16916;SDS011;8575;52.418;13.492;2023-01-01T01:44:48;157.67;;;42.00;;
16916;SDS011;8575;52.418;13.492;2023-01-01T01:47:01;156.00;;;41.90;;
16916;SDS011;8575;52.418;13.492;2023-01-01T01:49:08;155.97;;;41.87;;
16916;SDS011;8575;52.418;13.492;2023-01-01T01:51:15;157.70;;;42.27;;
16916;SDS011;8575;52.418;13.492;2023-01-01T01:53:22;156.97;;;42.10;;
16916;SDS011;8575;52.418;13.492;2023-01-01T01:55:26;156.53;;;41.50;;
16916;SDS011;8575;52.418;13.492;2023-01-01T01:57:32;155.50;;;41.53;;
16916;SDS011;8575;52.418;13.492;2023-01-01T01:59:34;155.43;;;41.30;;
16916;SDS011;8575;52.418;13.492;2023-01-01T02:01:39;154.60;;;41.50;;
16916;SDS011;8575;52.418;13.492;2023-01-01T02:03:43;154.00;;;41.97;;
16916;SDS011;8575;52.418;13.492;2023-01-01T02:05:48;145.17;;;37.60;;
16916;SDS011;8575;52.418;13.492;2023-01-01T02:07:51;151.83;;;40.70;;
16916;SDS011;8575;52.418;13.492;2023-01-01T02:09:54;147.47;;;39.17;;
16916;SDS011;8575;52.418;13.492;2023-01-01T02:11:57;142.80;;;37.23;;
16916;SDS011;8575;52.418;13.492;2023-01-01T02:14:02;151.80;;;41.83;;
16916;SDS011;8575;52.418;13.492;2023-01-01T02:16:05;149.33;;;40.37;;
16916;SDS011;8575;52.418;13.492;2023-01-01T02:18:10;148.87;;;40.57;;
16916;SDS011;8575;52.418;13.492;2023-01-01T02:20:18;146.03;;;39.50;;
16916;SDS011;8575;52.418;13.492;2023-01-01T02:22:27;147.57;;;39.90;;
16916;SDS011;8575;52.418;13.492;2023-01-01T02:24:38;147.57;;;40.43;;
16916;SDS011;8575;52.418;13.492;2023-01-01T02:26:46;146.70;;;40.40;;
16916;SDS011;8575;52.418;13.492;2023-01-01T02:28:53;146.33;;;39.93;;
16916;SDS011;8575;52.418;13.492;2023-01-01T02:30:59;146.77;;;40.37;;
16916;SDS011;8575;52.418;13.492;2023-01-01T02:33:03;146.50;;;40.43;;
16916;SDS011;8575;52.418;13.492;2023-01-01T02:35:09;145.73;;;40.47;;
16916;SDS011;8575;52.418;13.492;2023-01-01T02:37:30;140.53;;;38.30;;
16916;SDS011;8575;52.418;13.492;2023-01-01T02:39:34;139.87;;;39.63;;
16916;SDS011;8575;52.418;13.492;2023-01-01T02:41:39;140.13;;;39.50;;
16916;SDS011;8575;52.418;13.492;2023-01-01T02:43:42;140.57;;;39.47;;
16916;SDS011;8575;52.418;13.492;2023-01-01T02:45:47;140.63;;;38.90;;
16916;SDS011;8575;52.418;13.492;2023-01-01T02:47:50;140.73;;;39.17;;
16916;SDS011;8575;52.418;13.492;2023-01-01T02:49:58;139.37;;;38.73;;
16916;SDS011;8575;52.418;13.492;2023-01-01T02:52:06;140.60;;;40.00;;
16916;SDS011;8575;52.418;13.492;2023-01-01T02:54:11;139.87;;;40.13;;
16916;SDS011;8575;52.418;13.492;2023-01-01T02:56:22;140.00;;;39.73;;
16916;SDS011;8575;52.418;13.492;2023-01-01T02:58:33;139.97;;;39.60;;
16916;SDS011;8575;52.418;13.492;2023-01-01T03:00:59;139.10;;;39.57;;
16916;SDS011;8575;52.418;13.492;2023-01-01T03:03:09;139.47;;;39.63;;
16916;SDS011;8575;52.418;13.492;2023-01-01T03:05:18;139.70;;;40.00;;
16916;SDS011;8575;52.418;13.492;2023-01-01T03:07:25;141.20;;;40.00;;
16916;SDS011;8575;52.418;13.492;2023-01-01T03:09:36;141.17;;;39.40;;
16916;SDS011;8575;52.418;13.492;2023-01-01T03:11:45;141.53;;;40.17;;
16916;SDS011;8575;52.418;13.492;2023-01-01T03:13:50;138.30;;;39.33;;
16916;SDS011;8575;52.418;13.492;2023-01-01T03:15:59;136.60;;;38.70;;
16916;SDS011;8575;52.418;13.492;2023-01-01T03:18:06;138.37;;;39.77;;
16916;SDS011;8575;52.418;13.492;2023-01-01T03:20:10;136.77;;;39.17;;
16916;SDS011;8575;52.418;13.492;2023-01-01T03:22:15;137.23;;;39.03;;
16916;SDS011;8575;52.418;13.492;2023-01-01T03:24:19;136.30;;;38.60;;
16916;SDS011;8575;52.418;13.492;2023-01-01T03:26:24;137.33;;;39.47;;
16916;SDS011;8575;52.418;13.492;2023-01-01T03:28:28;135.03;;;38.40;;
16916;SDS011;8575;52.418;13.492;2023-01-01T03:30:34;136.63;;;39.00;;
16916;SDS011;8575;52.418;13.492;2023-01-01T03:32:40;134.90;;;39.00;;
16916;SDS011;8575;52.418;13.492;2023-01-01T03:35:04;136.40;;;39.67;;
16916;SDS011;8575;52.418;13.492;2023-01-01T03:37:07;134.33;;;39.30;;
16916;SDS011;8575;52.418;13.492;2023-01-01T03:39:14;132.10;;;38.67;;
16916;SDS011;8575;52.418;13.492;2023-01-01T03:41:20;134.77;;;39.27;;
16916;SDS011;8575;52.418;13.492;2023-01-01T03:43:27;133.57;;;39.10;;
16916;SDS011;8575;52.418;13.492;2023-01-01T03:45:36;134.27;;;38.73;;
16916;SDS011;8575;52.418;13.492;2023-01-01T03:47:42;125.20;;;38.00;;
16916;SDS011;8575;52.418;13.492;2023-01-01T03:49:44;124.87;;;37.93;;
16916;SDS011;8575;52.418;13.492;2023-01-01T03:51:53;125.40;;;37.73;;
16916;SDS011;8575;52.418;13.492;2023-01-01T03:53:58;133.67;;;39.10;;
16916;SDS011;8575;52.418;13.492;2023-01-01T03:56:04;133.30;;;38.83;;
16916;SDS011;8575;52.418;13.492;2023-01-01T03:58:11;133.17;;;39.03;;
16916;SDS011;8575;52.418;13.492;2023-01-01T04:00:20;131.73;;;38.93;;
16916;SDS011;8575;52.418;13.492;2023-01-01T04:02:24;131.93;;;38.50;;
16916;SDS011;8575;52.418;13.492;2023-01-01T04:04:31;132.87;;;38.93;;
16916;SDS011;8575;52.418;13.492;2023-01-01T04:06:33;133.23;;;38.97;;
16916;SDS011;8575;52.418;13.492;2023-01-01T04:08:35;131.77;;;38.80;;
16916;SDS011;8575;52.418;13.492;2023-01-01T04:10:38;131.77;;;38.60;;
16916;SDS011;8575;52.418;13.492;2023-01-01T04:12:45;130.43;;;38.33;;
16916;SDS011;8575;52.418;13.492;2023-01-01T04:14:47;131.60;;;39.13;;
16916;SDS011;8575;52.418;13.492;2023-01-01T04:16:50;130.77;;;38.30;;
16916;SDS011;8575;52.418;13.492;2023-01-01T04:18:52;130.07;;;38.17;;
16916;SDS011;8575;52.418;13.492;2023-01-01T04:20:56;132.07;;;39.00;;
16916;SDS011;8575;52.418;13.492;2023-01-01T04:22:58;131.53;;;38.53;;
16916;SDS011;8575;52.418;13.492;2023-01-01T04:25:01;131.63;;;39.30;;
16916;SDS011;8575;52.418;13.492;2023-01-01T04:27:03;125.50;;;38.17;;
16916;SDS011;8575;52.418;13.492;2023-01-01T04:29:05;133.77;;;39.33;;
16916;SDS011;8575;52.418;13.492;2023-01-01T04:31:08;134.63;;;39.47;;
16916;SDS011;8575;52.418;13.492;2023-01-01T04:33:11;134.33;;;40.00;;
16916;SDS011;8575;52.418;13.492;2023-01-01T04:35:13;133.80;;;39.50;;
16916;SDS011;8575;52.418;13.492;2023-01-01T04:37:17;133.10;;;38.97;;
16916;SDS011;8575;52.418;13.492;2023-01-01T04:39:19;132.83;;;38.87;;
16916;SDS011;8575;52.418;13.492;2023-01-01T04:41:22;134.50;;;39.43;;
16916;SDS011;8575;52.418;13.492;2023-01-01T04:43:24;133.53;;;39.40;;
16916;SDS011;8575;52.418;13.492;2023-01-01T04:45:26;131.63;;;39.30;;
16916;SDS011;8575;52.418;13.492;2023-01-01T04:47:28;132.83;;;39.43;;
16916;SDS011;8575;52.418;13.492;2023-01-01T04:49:31;132.73;;;39.40;;
16916;SDS011;8575;52.418;13.492;2023-01-01T04:51:33;133.10;;;39.13;;
16916;SDS011;8575;52.418;13.492;2023-01-01T04:53:37;133.10;;;39.17;;
16916;SDS011;8575;52.418;13.492;2023-01-01T04:55:41;134.77;;;39.70;;
16916;SDS011;8575;52.418;13.492;2023-01-01T04:57:43;132.63;;;39.13;;
16916;SDS011;8575;52.418;13.492;2023-01-01T04:59:46;131.30;;;39.17;;
16916;SDS011;8575;52.418;13.492;2023-01-01T05:01:48;131.10;;;38.73;;
16916;SDS011;8575;52.418;13.492;2023-01-01T05:03:50;130.47;;;38.87;;
16916;SDS011;8575;52.418;13.492;2023-01-01T05:06:00;130.53;;;38.37;;
16916;SDS011;8575;52.418;13.492;2023-01-01T05:08:03;131.50;;;38.67;;
16916;SDS011;8575;52.418;13.492;2023-01-01T05:10:07;132.00;;;38.77;;
16916;SDS011;8575;52.418;13.492;2023-01-01T05:12:09;131.60;;;38.80;;
16916;SDS011;8575;52.418;13.492;2023-01-01T05:14:12;130.87;;;38.53;;
16916;SDS011;8575;52.418;13.492;2023-01-01T05:16:15;130.87;;;39.37;;
16916;SDS011;8575;52.418;13.492;2023-01-01T05:18:18;130.23;;;39.17;;
16916;SDS011;8575;52.418;13.492;2023-01-01T05:20:20;130.93;;;39.60;;
16916;SDS011;8575;52.418;13.492;2023-01-01T05:22:22;129.37;;;39.13;;
16916;SDS011;8575;52.418;13.492;2023-01-01T05:24:25;128.50;;;38.63;;
16916;SDS011;8575;52.418;13.492;2023-01-01T05:26:29;129.20;;;38.37;;
16916;SDS011;8575;52.418;13.492;2023-01-01T05:28:33;131.37;;;39.17;;
16916;SDS011;8575;52.418;13.492;2023-01-01T05:30:37;131.60;;;38.67;;
16916;SDS011;8575;52.418;13.492;2023-01-01T05:32:40;133.67;;;39.60;;
16916;SDS011;8575;52.418;13.492;2023-01-01T05:34:42;132.67;;;39.73;;
16916;SDS011;8575;52.418;13.492;2023-01-01T05:36:44;132.30;;;38.80;;
16916;SDS011;8575;52.418;13.492;2023-01-01T05:38:46;129.20;;;38.00;;
16916;SDS011;8575;52.418;13.492;2023-01-01T05:40:49;130.70;;;38.73;;
16916;SDS011;8575;52.418;13.492;2023-01-01T05:42:52;132.40;;;39.47;;
16916;SDS011;8575;52.418;13.492;2023-01-01T05:44:55;129.77;;;39.33;;
16916;SDS011;8575;52.418;13.492;2023-01-01T05:46:57;129.93;;;38.57;;
16916;SDS011;8575;52.418;13.492;2023-01-01T05:48:59;133.73;;;39.67;;
16916;SDS011;8575;52.418;13.492;2023-01-01T05:51:02;130.23;;;38.47;;
16916;SDS011;8575;52.418;13.492;2023-01-01T05:53:04;130.07;;;39.00;;
16916;SDS011;8575;52.418;13.492;2023-01-01T05:55:07;130.57;;;39.30;;
16916;SDS011;8575;52.418;13.492;2023-01-01T05:57:09;127.57;;;38.47;;
16916;SDS011;8575;52.418;13.492;2023-01-01T05:59:13;124.07;;;37.73;;
16916;SDS011;8575;52.418;13.492;2023-01-01T06:01:16;127.67;;;38.77;;
16916;SDS011;8575;52.418;13.492;2023-01-01T06:03:19;126.83;;;38.57;;
16916;SDS011;8575;52.418;13.492;2023-01-01T06:05:22;126.63;;;38.73;;
16916;SDS011;8575;52.418;13.492;2023-01-01T06:07:24;125.40;;;38.47;;
16916;SDS011;8575;52.418;13.492;2023-01-01T06:09:26;125.23;;;38.23;;
16916;SDS011;8575;52.418;13.492;2023-01-01T06:11:29;124.03;;;38.63;;
16916;SDS011;8575;52.418;13.492;2023-01-01T06:13:32;123.47;;;39.37;;
16916;SDS011;8575;52.418;13.492;2023-01-01T06:15:35;122.50;;;38.50;;
16916;SDS011;8575;52.418;13.492;2023-01-01T06:17:38;122.10;;;38.07;;
16916;SDS011;8575;52.418;13.492;2023-01-01T06:19:40;119.57;;;38.23;;
16916;SDS011;8575;52.418;13.492;2023-01-01T06:21:42;117.53;;;37.47;;
16916;SDS011;8575;52.418;13.492;2023-01-01T06:23:44;118.27;;;37.30;;
16916;SDS011;8575;52.418;13.492;2023-01-01T06:25:47;117.20;;;37.10;;
16916;SDS011;8575;52.418;13.492;2023-01-01T06:27:49;116.27;;;37.07;;
16916;SDS011;8575;52.418;13.492;2023-01-01T06:29:51;114.60;;;37.00;;
16916;SDS011;8575;52.418;13.492;2023-01-01T06:31:55;114.77;;;37.10;;
16916;SDS011;8575;52.418;13.492;2023-01-01T06:33:57;111.37;;;36.80;;
16916;SDS011;8575;52.418;13.492;2023-01-01T06:36:00;110.93;;;36.57;;
16916;SDS011;8575;52.418;13.492;2023-01-01T06:38:02;112.77;;;36.57;;
16916;SDS011;8575;52.418;13.492;2023-01-01T06:40:05;113.73;;;37.13;;
16916;SDS011;8575;52.418;13.492;2023-01-01T06:42:08;113.17;;;37.00;;
16916;SDS011;8575;52.418;13.492;2023-01-01T06:44:10;112.67;;;36.40;;
16916;SDS011;8575;52.418;13.492;2023-01-01T06:46:13;114.30;;;36.90;;
16916;SDS011;8575;52.418;13.492;2023-01-01T06:48:18;113.33;;;37.10;;
16916;SDS011;8575;52.418;13.492;2023-01-01T06:50:21;113.70;;;36.67;;
16916;SDS011;8575;52.418;13.492;2023-01-01T06:52:23;115.17;;;37.47;;
16916;SDS011;8575;52.418;13.492;2023-01-01T06:54:25;115.30;;;37.37;;
16916;SDS011;8575;52.418;13.492;2023-01-01T06:56:28;115.60;;;37.17;;
16916;SDS011;8575;52.418;13.492;2023-01-01T06:58:30;114.67;;;37.27;;
16916;SDS011;8575;52.418;13.492;2023-01-01T07:00:33;115.50;;;37.23;;
16916;SDS011;8575;52.418;13.492;2023-01-01T07:02:35;116.33;;;36.83;;
16916;SDS011;8575;52.418;13.492;2023-01-01T07:04:39;116.73;;;37.33;;
16916;SDS011;8575;52.418;13.492;2023-01-01T07:06:42;116.00;;;37.30;;
16916;SDS011;8575;52.418;13.492;2023-01-01T07:08:44;116.67;;;37.57;;
16916;SDS011;8575;52.418;13.492;2023-01-01T07:10:46;116.77;;;37.47;;
16916;SDS011;8575;52.418;13.492;2023-01-01T07:12:48;116.60;;;37.10;;
16916;SDS011;8575;52.418;13.492;2023-01-01T07:14:51;115.40;;;37.47;;
16916;SDS011;8575;52.418;13.492;2023-01-01T07:16:53;115.73;;;37.30;;
16916;SDS011;8575;52.418;13.492;2023-01-01T07:18:55;117.77;;;37.90;;
16916;SDS011;8575;52.418;13.492;2023-01-01T07:20:59;118.43;;;37.33;;
16916;SDS011;8575;52.418;13.492;2023-01-01T07:23:02;119.03;;;37.80;;
16916;SDS011;8575;52.418;13.492;2023-01-01T07:25:05;119.40;;;38.97;;
16916;SDS011;8575;52.418;13.492;2023-01-01T07:27:08;118.90;;;38.07;;
16916;SDS011;8575;52.418;13.492;2023-01-01T07:29:10;117.93;;;37.87;;
16916;SDS011;8575;52.418;13.492;2023-01-01T07:31:13;118.07;;;37.90;;
16916;SDS011;8575;52.418;13.492;2023-01-01T07:33:16;116.13;;;37.30;;
16916;SDS011;8575;52.418;13.492;2023-01-01T07:35:19;117.47;;;37.17;;
16916;SDS011;8575;52.418;13.492;2023-01-01T07:37:23;116.90;;;37.80;;
16916;SDS011;8575;52.418;13.492;2023-01-01T07:39:26;116.07;;;37.73;;
16916;SDS011;8575;52.418;13.492;2023-01-01T07:41:28;115.97;;;37.83;;
16916;SDS011;8575;52.418;13.492;2023-01-01T07:43:32;114.63;;;37.53;;
16916;SDS011;8575;52.418;13.492;2023-01-01T07:45:35;113.57;;;37.37;;
16916;SDS011;8575;52.418;13.492;2023-01-01T07:47:37;113.83;;;37.53;;
16916;SDS011;8575;52.418;13.492;2023-01-01T07:49:40;112.87;;;37.23;;
16916;SDS011;8575;52.418;13.492;2023-01-01T07:51:42;113.43;;;37.00;;
16916;SDS011;8575;52.418;13.492;2023-01-01T07:53:45;113.07;;;37.30;;
16916;SDS011;8575;52.418;13.492;2023-01-01T07:55:48;112.83;;;37.70;;
16916;SDS011;8575;52.418;13.492;2023-01-01T07:57:52;112.47;;;37.17;;
16916;SDS011;8575;52.418;13.492;2023-01-01T07:59:54;112.27;;;37.10;;
16916;SDS011;8575;52.418;13.492;2023-01-01T08:01:56;112.43;;;37.10;;
16916;SDS011;8575;52.418;13.492;2023-01-01T08:03:59;111.83;;;37.07;;
16916;SDS011;8575;52.418;13.492;2023-01-01T08:06:04;111.73;;;36.73;;
16916;SDS011;8575;52.418;13.492;2023-01-01T08:08:08;111.07;;;37.23;;
16916;SDS011;8575;52.418;13.492;2023-01-01T08:10:12;111.20;;;36.77;;
16916;SDS011;8575;52.418;13.492;2023-01-01T08:12:14;112.50;;;37.03;;
16916;SDS011;8575;52.418;13.492;2023-01-01T08:14:17;112.60;;;37.50;;
16916;SDS011;8575;52.418;13.492;2023-01-01T08:16:19;111.97;;;37.07;;
16916;SDS011;8575;52.418;13.492;2023-01-01T08:18:21;112.13;;;37.17;;
16916;SDS011;8575;52.418;13.492;2023-01-01T08:20:24;112.73;;;37.37;;
16916;SDS011;8575;52.418;13.492;2023-01-01T08:22:26;111.17;;;37.13;;
16916;SDS011;8575;52.418;13.492;2023-01-01T08:24:29;111.43;;;37.17;;
16916;SDS011;8575;52.418;13.492;2023-01-01T08:26:33;112.10;;;37.40;;
16916;SDS011;8575;52.418;13.492;2023-01-01T08:28:39;110.03;;;36.77;;
16916;SDS011;8575;52.418;13.492;2023-01-01T08:30:41;110.23;;;36.50;;
16916;SDS011;8575;52.418;13.492;2023-01-01T08:32:44;109.63;;;36.43;;
16916;SDS011;8575;52.418;13.492;2023-01-01T08:34:46;109.53;;;37.03;;
16916;SDS011;8575;52.418;13.492;2023-01-01T08:36:48;106.87;;;36.20;;
16916;SDS011;8575;52.418;13.492;2023-01-01T08:38:50;104.37;;;35.73;;
16916;SDS011;8575;52.418;13.492;2023-01-01T08:40:53;103.47;;;35.97;;
16916;SDS011;8575;52.418;13.492;2023-01-01T08:42:56;100.13;;;35.17;;
16916;SDS011;8575;52.418;13.492;2023-01-01T08:44:58;99.43;;;35.73;;
16916;SDS011;8575;52.418;13.492;2023-01-01T08:47:01;101.40;;;35.60;;
16916;SDS011;8575;52.418;13.492;2023-01-01T08:49:03;100.40;;;35.63;;
16916;SDS011;8575;52.418;13.492;2023-01-01T08:51:05;100.50;;;35.43;;
16916;SDS011;8575;52.418;13.492;2023-01-01T08:53:08;98.73;;;35.60;;
16916;SDS011;8575;52.418;13.492;2023-01-01T08:55:10;97.77;;;34.97;;
16916;SDS011;8575;52.418;13.492;2023-01-01T08:57:12;92.30;;;34.40;;
16916;SDS011;8575;52.418;13.492;2023-01-01T08:59:16;91.53;;;33.90;;
16916;SDS011;8575;52.418;13.492;2023-01-01T09:01:18;91.13;;;33.70;;
16916;SDS011;8575;52.418;13.492;2023-01-01T09:03:21;99.63;;;35.37;;
16916;SDS011;8575;52.418;13.492;2023-01-01T09:05:24;100.20;;;35.17;;
16916;SDS011;8575;52.418;13.492;2023-01-01T09:07:26;100.97;;;35.80;;
16916;SDS011;8575;52.418;13.492;2023-01-01T09:09:28;99.03;;;34.93;;
16916;SDS011;8575;52.418;13.492;2023-01-01T09:11:30;99.90;;;35.17;;
16916;SDS011;8575;52.418;13.492;2023-01-01T09:13:33;100.87;;;36.23;;
16916;SDS011;8575;52.418;13.492;2023-01-01T09:15:36;101.77;;;35.90;;
16916;SDS011;8575;52.418;13.492;2023-01-01T09:17:39;101.60;;;35.57;;
16916;SDS011;8575;52.418;13.492;2023-01-01T09:19:41;101.93;;;35.50;;
16916;SDS011;8575;52.418;13.492;2023-01-01T09:21:43;100.40;;;35.70;;
16916;SDS011;8575;52.418;13.492;2023-01-01T09:23:46;100.53;;;35.43;;
16916;SDS011;8575;52.418;13.492;2023-01-01T09:25:49;100.67;;;34.93;;
16916;SDS011;8575;52.418;13.492;2023-01-01T09:27:55;100.60;;;34.83;;
16916;SDS011;8575;52.418;13.492;2023-01-01T09:29:58;98.50;;;34.90;;
16916;SDS011;8575;52.418;13.492;2023-01-01T09:32:02;99.00;;;34.40;;
16916;SDS011;8575;52.418;13.492;2023-01-01T09:34:04;99.43;;;35.10;;
16916;SDS011;8575;52.418;13.492;2023-01-01T09:36:13;99.90;;;35.23;;
16916;SDS011;8575;52.418;13.492;2023-01-01T09:38:17;98.57;;;34.90;;
16916;SDS011;8575;52.418;13.492;2023-01-01T09:40:23;98.73;;;34.97;;
16916;SDS011;8575;52.418;13.492;2023-01-01T09:42:31;99.43;;;35.27;;
16916;SDS011;8575;52.418;13.492;2023-01-01T09:44:44;99.27;;;35.07;;
16916;SDS011;8575;52.418;13.492;2023-01-01T09:47:10;99.17;;;35.07;;
16916;SDS011;8575;52.418;13.492;2023-01-01T09:49:20;99.80;;;35.47;;
16916;SDS011;8575;52.418;13.492;2023-01-01T09:51:29;91.43;;;34.00;;
16916;SDS011;8575;52.418;13.492;2023-01-01T09:53:36;86.40;;;32.87;;
16916;SDS011;8575;52.418;13.492;2023-01-01T09:55:43;98.00;;;35.37;;
16916;SDS011;8575;52.418;13.492;2023-01-01T09:57:47;96.27;;;34.17;;
16916;SDS011;8575;52.418;13.492;2023-01-01T09:59:49;97.60;;;34.50;;
16916;SDS011;8575;52.418;13.492;2023-01-01T10:01:53;95.57;;;33.97;;
16916;SDS011;8575;52.418;13.492;2023-01-01T10:04:00;96.57;;;34.27;;
16916;SDS011;8575;52.418;13.492;2023-01-01T10:06:12;96.97;;;34.13;;
16916;SDS011;8575;52.418;13.492;2023-01-01T10:08:24;95.03;;;33.90;;
16916;SDS011;8575;52.418;13.492;2023-01-01T10:10:38;93.80;;;33.97;;
16916;SDS011;8575;52.418;13.492;2023-01-01T10:12:43;93.43;;;33.83;;
16916;SDS011;8575;52.418;13.492;2023-01-01T10:14:51;93.50;;;34.07;;
16916;SDS011;8575;52.418;13.492;2023-01-01T10:16:55;96.07;;;34.03;;
16916;SDS011;8575;52.418;13.492;2023-01-01T10:19:01;95.53;;;34.07;;
16916;SDS011;8575;52.418;13.492;2023-01-01T10:21:08;97.87;;;34.37;;
16916;SDS011;8575;52.418;13.492;2023-01-01T10:23:14;95.27;;;34.07;;
16916;SDS011;8575;52.418;13.492;2023-01-01T10:25:20;96.73;;;34.30;;
16916;SDS011;8575;52.418;13.492;2023-01-01T10:27:25;96.70;;;34.17;;
16916;SDS011;8575;52.418;13.492;2023-01-01T10:29:34;93.40;;;33.37;;
16916;SDS011;8575;52.418;13.492;2023-01-01T10:31:40;94.30;;;33.73;;
16916;SDS011;8575;52.418;13.492;2023-01-01T10:33:44;92.40;;;33.57;;
16916;SDS011;8575;52.418;13.492;2023-01-01T10:35:49;95.47;;;33.80;;
16916;SDS011;8575;52.418;13.492;2023-01-01T10:37:53;96.83;;;34.30;;
16916;SDS011;8575;52.418;13.492;2023-01-01T10:39:55;96.67;;;34.30;;
16916;SDS011;8575;52.418;13.492;2023-01-01T10:41:58;87.63;;;31.67;;
16916;SDS011;8575;52.418;13.492;2023-01-01T10:44:01;88.80;;;34.40;;
16916;SDS011;8575;52.418;13.492;2023-01-01T10:46:04;87.93;;;32.00;;
16916;SDS011;8575;52.418;13.492;2023-01-01T10:48:08;85.50;;;33.67;;
16916;SDS011;8575;52.418;13.492;2023-01-01T10:50:12;91.90;;;34.10;;
16916;SDS011;8575;52.418;13.492;2023-01-01T10:52:23;90.60;;;34.77;;
16916;SDS011;8575;52.418;13.492;2023-01-01T10:54:31;91.30;;;34.63;;
16916;SDS011;8575;52.418;13.492;2023-01-01T10:56:38;90.23;;;35.27;;
16916;SDS011;8575;52.418;13.492;2023-01-01T10:58:42;88.63;;;34.57;;
16916;SDS011;8575;52.418;13.492;2023-01-01T11:00:47;88.87;;;33.77;;
16916;SDS011;8575;52.418;13.492;2023-01-01T11:03:10;85.07;;;33.80;;
16916;SDS011;8575;52.418;13.492;2023-01-01T11:05:16;92.17;;;35.13;;
16916;SDS011;8575;52.418;13.492;2023-01-01T11:07:23;91.17;;;34.57;;
16916;SDS011;8575;52.418;13.492;2023-01-01T11:09:29;90.17;;;34.40;;
16916;SDS011;8575;52.418;13.492;2023-01-01T11:11:33;91.40;;;34.40;;
16916;SDS011;8575;52.418;13.492;2023-01-01T11:13:38;89.13;;;34.27;;
16916;SDS011;8575;52.418;13.492;2023-01-01T11:15:41;89.63;;;34.77;;
16916;SDS011;8575;52.418;13.492;2023-01-01T11:17:43;92.37;;;35.13;;
16916;SDS011;8575;52.418;13.492;2023-01-01T11:19:47;91.00;;;34.40;;
16916;SDS011;8575;52.418;13.492;2023-01-01T11:21:50;89.23;;;33.67;;
16916;SDS011;8575;52.418;13.492;2023-01-01T11:24:09;90.57;;;34.20;;
16916;SDS011;8575;52.418;13.492;2023-01-01T11:26:19;91.87;;;34.87;;
16916;SDS011;8575;52.418;13.492;2023-01-01T11:28:26;91.57;;;34.23;;
16916;SDS011;8575;52.418;13.492;2023-01-01T11:30:31;90.17;;;34.07;;
16916;SDS011;8575;52.418;13.492;2023-01-01T11:32:33;91.63;;;34.60;;
16916;SDS011;8575;52.418;13.492;2023-01-01T11:34:37;91.93;;;34.97;;
16916;SDS011;8575;52.418;13.492;2023-01-01T11:36:41;90.20;;;34.20;;
16916;SDS011;8575;52.418;13.492;2023-01-01T11:38:43;92.13;;;34.20;;
16916;SDS011;8575;52.418;13.492;2023-01-01T11:40:47;92.57;;;35.27;;
16916;SDS011;8575;52.418;13.492;2023-01-01T11:42:57;90.80;;;34.30;;
16916;SDS011;8575;52.418;13.492;2023-01-01T11:45:09;91.40;;;35.40;;
16916;SDS011;8575;52.418;13.492;2023-01-01T11:47:39;90.60;;;34.07;;
16916;SDS011;8575;52.418;13.492;2023-01-01T11:49:42;90.37;;;34.87;;
16916;SDS011;8575;52.418;13.492;2023-01-01T11:51:45;90.30;;;34.70;;
16916;SDS011;8575;52.418;13.492;2023-01-01T11:53:48;92.07;;;34.50;;
16916;SDS011;8575;52.418;13.492;2023-01-01T11:55:52;91.97;;;34.47;;
16916;SDS011;8575;52.418;13.492;2023-01-01T11:58:00;93.00;;;34.43;;
16916;SDS011;8575;52.418;13.492;2023-01-01T12:00:08;90.97;;;34.50;;